sensor_id;sensor_type;location;lat;lon;timestamp;P1;durP1;ratioP1;P2;durP2;ratioP2
1328;SDS011;658;48.820;9.354;2022-10-16T00:01:10;17.67;;;10.57;;
1328;SDS011;658;48.820;9.354;2022-10-16T00:05:13;16.10;;;11.03;;
1328;SDS011;658;48.820;9.354;2022-10-16T00:09:14;14.97;;;10.53;;
1328;SDS011;658;48.820;9.354;2022-10-16T00:13:14;17.07;;;9.97;;
1328;SDS011;658;48.820;9.354;2022-10-16T00:17:17;13.37;;;9.60;;
1328;SDS011;658;48.820;9.354;2022-10-16T00:21:19;17.37;;;11.03;;
1328;SDS011;658;48.820;9.354;2022-10-16T00:25:21;16.40;;;10.30;;
1328;SDS011;658;48.820;9.354;2022-10-16T00:29:22;15.90;;;10.27;;
1328;SDS011;658;48.820;9.354;2022-10-16T00:33:22;16.47;;;11.37;;
1328;SDS011;658;48.820;9.354;2022-10-16T00:37:23;13.87;;;9.40;;
1328;SDS011;658;48.820;9.354;2022-10-16T00:41:24;16.10;;;9.70;;
1328;SDS011;658;48.820;9.354;2022-10-16T00:45:25;14.10;;;9.90;;
1328;SDS011;658;48.820;9.354;2022-10-16T00:49:26;17.53;;;11.10;;
1328;SDS011;658;48.820;9.354;2022-10-16T00:53:27;15.37;;;9.00;;
1328;SDS011;658;48.820;9.354;2022-10-16T00:57:27;16.33;;;9.47;;
1328;SDS011;658;48.820;9.354;2022-10-16T01:01:28;13.87;;;9.90;;
1328;SDS011;658;48.820;9.354;2022-10-16T01:05:34;14.40;;;9.93;;
1328;SDS011;658;48.820;9.354;2022-10-16T01:14:22;12.97;;;9.53;;
1328;SDS011;658;48.820;9.354;2022-10-16T01:18:49;14.80;;;9.33;;
1328;SDS011;658;48.820;9.354;2022-10-16T01:27:25;14.57;;;9.87;;
1328;SDS011;658;48.820;9.354;2022-10-16T01:31:29;12.37;;;8.60;;
1328;SDS011;658;48.820;9.354;2022-10-16T01:35:38;12.90;;;8.90;;
1328;SDS011;658;48.820;9.354;2022-10-16T01:39:45;13.57;;;9.70;;
1328;SDS011;658;48.820;9.354;2022-10-16T01:43:53;11.97;;;8.80;;
1328;SDS011;658;48.820;9.354;2022-10-16T01:48:00;12.57;;;9.10;;
1328;SDS011;658;48.820;9.354;2022-10-16T01:52:05;12.10;;;8.67;;
1328;SDS011;658;48.820;9.354;2022-10-16T01:56:10;12.10;;;8.23;;
1328;SDS011;658;48.820;9.354;2022-10-16T02:00:13;10.77;;;7.47;;
1328;SDS011;658;48.820;9.354;2022-10-16T02:08:24;11.13;;;7.77;;
1328;SDS011;658;48.820;9.354;2022-10-16T02:12:29;11.80;;;8.27;;
1328;SDS011;658;48.820;9.354;2022-10-16T02:16:34;11.20;;;8.07;;
1328;SDS011;658;48.820;9.354;2022-10-16T02:20:48;10.33;;;8.13;;
1328;SDS011;658;48.820;9.354;2022-10-16T02:24:59;11.50;;;8.27;;
1328;SDS011;658;48.820;9.354;2022-10-16T02:29:06;11.47;;;8.03;;
1328;SDS011;658;48.820;9.354;2022-10-16T02:33:11;11.17;;;8.00;;
1328;SDS011;658;48.820;9.354;2022-10-16T02:37:13;9.87;;;7.37;;
1328;SDS011;658;48.820;9.354;2022-10-16T02:41:15;9.63;;;7.10;;
1328;SDS011;658;48.820;9.354;2022-10-16T02:45:16;8.40;;;6.87;;
1328;SDS011;658;48.820;9.354;2022-10-16T02:49:17;8.20;;;6.50;;
1328;SDS011;658;48.820;9.354;2022-10-16T02:53:18;9.83;;;7.07;;
1328;SDS011;658;48.820;9.354;2022-10-16T02:57:19;8.47;;;6.23;;
1328;SDS011;658;48.820;9.354;2022-10-16T03:01:20;10.97;;;6.73;;
1328;SDS011;658;48.820;9.354;2022-10-16T03:05:20;8.60;;;6.60;;
1328;SDS011;658;48.820;9.354;2022-10-16T03:09:21;9.37;;;6.83;;
1328;SDS011;658;48.820;9.354;2022-10-16T03:13:21;7.00;;;6.00;;
1328;SDS011;658;48.820;9.354;2022-10-16T03:17:22;9.00;;;6.70;;
1328;SDS011;658;48.820;9.354;2022-10-16T03:21:24;7.83;;;5.93;;
1328;SDS011;658;48.820;9.354;2022-10-16T03:25:24;7.50;;;5.67;;
1328;SDS011;658;48.820;9.354;2022-10-16T03:29:25;8.00;;;6.13;;
1328;SDS011;658;48.820;9.354;2022-10-16T03:33:27;10.60;;;5.90;;
1328;SDS011;658;48.820;9.354;2022-10-16T03:37:28;8.03;;;6.00;;
1328;SDS011;658;48.820;9.354;2022-10-16T03:41:29;5.93;;;4.67;;
1328;SDS011;658;48.820;9.354;2022-10-16T03:45:29;8.77;;;5.47;;
1328;SDS011;658;48.820;9.354;2022-10-16T03:49:30;6.00;;;5.10;;
1328;SDS011;658;48.820;9.354;2022-10-16T03:53:30;6.73;;;5.03;;
1328;SDS011;658;48.820;9.354;2022-10-16T03:57:31;7.00;;;5.03;;
1328;SDS011;658;48.820;9.354;2022-10-16T04:01:32;7.40;;;5.60;;
1328;SDS011;658;48.820;9.354;2022-10-16T04:05:32;5.80;;;4.13;;
1328;SDS011;658;48.820;9.354;2022-10-16T04:09:33;6.10;;;4.77;;
1328;SDS011;658;48.820;9.354;2022-10-16T04:13:33;7.67;;;5.23;;
1328;SDS011;658;48.820;9.354;2022-10-16T04:17:34;8.40;;;5.80;;
1328;SDS011;658;48.820;9.354;2022-10-16T04:21:35;5.57;;;4.33;;
1328;SDS011;658;48.820;9.354;2022-10-16T04:25:35;5.87;;;4.80;;
1328;SDS011;658;48.820;9.354;2022-10-16T04:29:36;5.60;;;4.70;;
1328;SDS011;658;48.820;9.354;2022-10-16T04:33:37;6.03;;;4.43;;
1328;SDS011;658;48.820;9.354;2022-10-16T04:37:37;5.90;;;4.60;;
1328;SDS011;658;48.820;9.354;2022-10-16T04:41:38;5.30;;;4.53;;
1328;SDS011;658;48.820;9.354;2022-10-16T04:45:38;4.40;;;4.00;;
1328;SDS011;658;48.820;9.354;2022-10-16T04:49:39;5.03;;;4.20;;
1328;SDS011;658;48.820;9.354;2022-10-16T04:53:40;6.67;;;4.10;;
1328;SDS011;658;48.820;9.354;2022-10-16T04:57:40;5.13;;;4.33;;
1328;SDS011;658;48.820;9.354;2022-10-16T05:01:41;3.93;;;3.63;;
1328;SDS011;658;48.820;9.354;2022-10-16T05:05:43;5.40;;;4.13;;
1328;SDS011;658;48.820;9.354;2022-10-16T05:09:44;5.50;;;3.70;;
1328;SDS011;658;48.820;9.354;2022-10-16T05:13:45;4.53;;;3.57;;
1328;SDS011;658;48.820;9.354;2022-10-16T05:17:45;5.33;;;3.50;;
1328;SDS011;658;48.820;9.354;2022-10-16T05:21:46;3.73;;;3.30;;
1328;SDS011;658;48.820;9.354;2022-10-16T05:25:53;4.10;;;3.53;;
1328;SDS011;658;48.820;9.354;2022-10-16T05:29:57;4.50;;;4.10;;
1328;SDS011;658;48.820;9.354;2022-10-16T05:33:59;5.80;;;3.90;;
1328;SDS011;658;48.820;9.354;2022-10-16T05:38:00;3.43;;;3.00;;
1328;SDS011;658;48.820;9.354;2022-10-16T05:42:00;4.10;;;3.70;;
1328;SDS011;658;48.820;9.354;2022-10-16T05:46:02;4.50;;;3.60;;
1328;SDS011;658;48.820;9.354;2022-10-16T05:50:05;4.07;;;2.87;;
1328;SDS011;658;48.820;9.354;2022-10-16T05:54:05;3.20;;;2.90;;
1328;SDS011;658;48.820;9.354;2022-10-16T05:58:06;4.33;;;3.50;;
1328;SDS011;658;48.820;9.354;2022-10-16T06:02:08;5.03;;;3.10;;
1328;SDS011;658;48.820;9.354;2022-10-16T06:06:14;3.97;;;3.40;;
1328;SDS011;658;48.820;9.354;2022-10-16T06:10:16;3.40;;;3.10;;
1328;SDS011;658;48.820;9.354;2022-10-16T06:14:17;4.23;;;3.23;;
1328;SDS011;658;48.820;9.354;2022-10-16T06:18:17;3.00;;;2.70;;
1328;SDS011;658;48.820;9.354;2022-10-16T06:22:18;3.17;;;2.90;;
1328;SDS011;658;48.820;9.354;2022-10-16T06:26:19;2.83;;;2.17;;
1328;SDS011;658;48.820;9.354;2022-10-16T06:30:22;2.83;;;2.30;;
1328;SDS011;658;48.820;9.354;2022-10-16T06:34:22;3.10;;;2.70;;
1328;SDS011;658;48.820;9.354;2022-10-16T06:38:23;2.50;;;2.30;;
1328;SDS011;658;48.820;9.354;2022-10-16T06:42:23;2.73;;;2.50;;
1328;SDS011;658;48.820;9.354;2022-10-16T06:46:24;2.70;;;2.50;;
1328;SDS011;658;48.820;9.354;2022-10-16T06:50:26;3.20;;;2.50;;
1328;SDS011;658;48.820;9.354;2022-10-16T06:54:26;3.53;;;2.87;;
1328;SDS011;658;48.820;9.354;2022-10-16T06:58:27;4.03;;;3.13;;
1328;SDS011;658;48.820;9.354;2022-10-16T07:02:28;3.70;;;2.47;;
1328;SDS011;658;48.820;9.354;2022-10-16T07:06:31;2.80;;;2.30;;
1328;SDS011;658;48.820;9.354;2022-10-16T07:10:33;2.60;;;2.40;;
1328;SDS011;658;48.820;9.354;2022-10-16T07:14:34;2.77;;;2.57;;
1328;SDS011;658;48.820;9.354;2022-10-16T07:18:35;3.30;;;2.23;;
1328;SDS011;658;48.820;9.354;2022-10-16T07:22:36;2.87;;;2.27;;
1328;SDS011;658;48.820;9.354;2022-10-16T07:26:37;3.10;;;2.57;;
1328;SDS011;658;48.820;9.354;2022-10-16T07:30:39;2.30;;;2.10;;
1328;SDS011;658;48.820;9.354;2022-10-16T07:34:39;2.60;;;2.37;;
1328;SDS011;658;48.820;9.354;2022-10-16T07:38:40;2.50;;;2.30;;
1328;SDS011;658;48.820;9.354;2022-10-16T07:42:42;2.57;;;2.07;;
1328;SDS011;658;48.820;9.354;2022-10-16T07:46:42;2.80;;;2.60;;
1328;SDS011;658;48.820;9.354;2022-10-16T07:50:43;2.23;;;2.03;;
1328;SDS011;658;48.820;9.354;2022-10-16T07:54:44;2.27;;;2.10;;
1328;SDS011;658;48.820;9.354;2022-10-16T07:58:45;2.60;;;2.40;;
1328;SDS011;658;48.820;9.354;2022-10-16T08:02:46;2.17;;;1.97;;
1328;SDS011;658;48.820;9.354;2022-10-16T08:06:47;2.10;;;1.90;;
1328;SDS011;658;48.820;9.354;2022-10-16T08:10:47;2.23;;;2.00;;
1328;SDS011;658;48.820;9.354;2022-10-16T08:14:48;2.10;;;1.90;;
1328;SDS011;658;48.820;9.354;2022-10-16T08:18:49;2.00;;;1.90;;
1328;SDS011;658;48.820;9.354;2022-10-16T08:22:51;2.00;;;1.70;;
1328;SDS011;658;48.820;9.354;2022-10-16T08:26:55;2.07;;;1.97;;
1328;SDS011;658;48.820;9.354;2022-10-16T08:30:55;1.90;;;1.80;;
1328;SDS011;658;48.820;9.354;2022-10-16T08:34:56;3.50;;;1.80;;
1328;SDS011;658;48.820;9.354;2022-10-16T08:38:57;1.77;;;1.67;;
1328;SDS011;658;48.820;9.354;2022-10-16T08:47:25;1.90;;;1.70;;
1328;SDS011;658;48.820;9.354;2022-10-16T08:51:36;1.80;;;1.70;;
1328;SDS011;658;48.820;9.354;2022-10-16T08:55:42;2.00;;;1.70;;
1328;SDS011;658;48.820;9.354;2022-10-16T08:59:46;1.87;;;1.73;;
1328;SDS011;658;48.820;9.354;2022-10-16T09:03:54;1.90;;;1.70;;
1328;SDS011;658;48.820;9.354;2022-10-16T09:12:37;1.60;;;1.50;;
1328;SDS011;658;48.820;9.354;2022-10-16T09:16:49;1.50;;;1.40;;
1328;SDS011;658;48.820;9.354;2022-10-16T09:20:59;2.10;;;1.50;;
1328;SDS011;658;48.820;9.354;2022-10-16T09:25:21;2.90;;;1.60;;
1328;SDS011;658;48.820;9.354;2022-10-16T09:29:23;2.00;;;1.50;;
1328;SDS011;658;48.820;9.354;2022-10-16T09:33:28;1.83;;;1.70;;
1328;SDS011;658;48.820;9.354;2022-10-16T09:37:35;1.40;;;1.30;;
1328;SDS011;658;48.820;9.354;2022-10-16T09:41:36;1.30;;;1.20;;
1328;SDS011;658;48.820;9.354;2022-10-16T09:45:39;2.33;;;1.37;;
1328;SDS011;658;48.820;9.354;2022-10-16T09:49:50;1.57;;;1.47;;
1328;SDS011;658;48.820;9.354;2022-10-16T09:53:57;1.27;;;1.17;;
1328;SDS011;658;48.820;9.354;2022-10-16T09:58:00;1.33;;;1.23;;
1328;SDS011;658;48.820;9.354;2022-10-16T10:02:01;1.33;;;1.20;;
1328;SDS011;658;48.820;9.354;2022-10-16T10:06:26;1.63;;;1.33;;
1328;SDS011;658;48.820;9.354;2022-10-16T10:10:40;1.70;;;1.17;;
1328;SDS011;658;48.820;9.354;2022-10-16T10:14:44;1.50;;;1.40;;
1328;SDS011;658;48.820;9.354;2022-10-16T10:18:57;1.23;;;1.17;;
1328;SDS011;658;48.820;9.354;2022-10-16T10:22:58;1.90;;;1.60;;
1328;SDS011;658;48.820;9.354;2022-10-16T10:27:04;1.23;;;1.17;;
1328;SDS011;658;48.820;9.354;2022-10-16T10:31:35;1.37;;;1.27;;
1328;SDS011;658;48.820;9.354;2022-10-16T10:44:50;1.20;;;1.10;;
1328;SDS011;658;48.820;9.354;2022-10-16T10:53:23;1.20;;;1.10;;
1328;SDS011;658;48.820;9.354;2022-10-16T11:01:48;1.37;;;1.20;;
1328;SDS011;658;48.820;9.354;2022-10-16T11:10:13;2.07;;;1.37;;
1328;SDS011;658;48.820;9.354;2022-10-16T11:14:19;6.20;;;1.40;;
1328;SDS011;658;48.820;9.354;2022-10-16T11:27:14;1.10;;;1.00;;
1328;SDS011;658;48.820;9.354;2022-10-16T11:31:22;1.70;;;1.20;;
1328;SDS011;658;48.820;9.354;2022-10-16T11:35:41;2.10;;;1.17;;
1328;SDS011;658;48.820;9.354;2022-10-16T11:39:45;1.63;;;1.50;;
1328;SDS011;658;48.820;9.354;2022-10-16T11:48:09;1.47;;;1.37;;
1328;SDS011;658;48.820;9.354;2022-10-16T11:56:40;2.03;;;1.37;;
1328;SDS011;658;48.820;9.354;2022-10-16T12:01:27;1.10;;;1.00;;
1328;SDS011;658;48.820;9.354;2022-10-16T12:05:35;2.07;;;1.30;;
1328;SDS011;658;48.820;9.354;2022-10-16T12:09:46;3.00;;;1.47;;
1328;SDS011;658;48.820;9.354;2022-10-16T12:13:47;2.57;;;1.60;;
1328;SDS011;658;48.820;9.354;2022-10-16T12:17:48;3.13;;;1.67;;
1328;SDS011;658;48.820;9.354;2022-10-16T12:21:50;2.17;;;1.37;;
1328;SDS011;658;48.820;9.354;2022-10-16T12:25:56;1.80;;;1.37;;
1328;SDS011;658;48.820;9.354;2022-10-16T12:29:59;2.57;;;1.50;;
1328;SDS011;658;48.820;9.354;2022-10-16T12:34:03;3.50;;;1.40;;
1328;SDS011;658;48.820;9.354;2022-10-16T12:38:12;2.20;;;1.63;;
1328;SDS011;658;48.820;9.354;2022-10-16T12:54:34;2.00;;;1.80;;
1328;SDS011;658;48.820;9.354;2022-10-16T12:59:21;3.07;;;1.80;;
1328;SDS011;658;48.820;9.354;2022-10-16T13:03:21;2.07;;;1.70;;
1328;SDS011;658;48.820;9.354;2022-10-16T13:12:40;2.13;;;1.50;;
1328;SDS011;658;48.820;9.354;2022-10-16T13:25:49;2.30;;;1.87;;
1328;SDS011;658;48.820;9.354;2022-10-16T13:30:24;3.70;;;2.20;;
1328;SDS011;658;48.820;9.354;2022-10-16T13:34:29;2.07;;;1.90;;
1328;SDS011;658;48.820;9.354;2022-10-16T13:38:34;3.03;;;1.90;;
1328;SDS011;658;48.820;9.354;2022-10-16T13:42:36;1.90;;;1.80;;
1328;SDS011;658;48.820;9.354;2022-10-16T13:46:36;2.67;;;2.13;;
1328;SDS011;658;48.820;9.354;2022-10-16T13:50:37;3.17;;;2.20;;
1328;SDS011;658;48.820;9.354;2022-10-16T13:54:38;6.63;;;3.43;;
1328;SDS011;658;48.820;9.354;2022-10-16T13:58:38;3.47;;;2.50;;
1328;SDS011;658;48.820;9.354;2022-10-16T14:02:39;3.97;;;2.53;;
1328;SDS011;658;48.820;9.354;2022-10-16T14:06:41;3.40;;;2.50;;
1328;SDS011;658;48.820;9.354;2022-10-16T14:10:50;3.40;;;2.77;;
1328;SDS011;658;48.820;9.354;2022-10-16T14:14:54;4.10;;;2.33;;
1328;SDS011;658;48.820;9.354;2022-10-16T14:19:00;4.17;;;2.70;;
1328;SDS011;658;48.820;9.354;2022-10-16T14:23:16;3.40;;;2.33;;
1328;SDS011;658;48.820;9.354;2022-10-16T14:27:23;3.83;;;2.40;;
1328;SDS011;658;48.820;9.354;2022-10-16T14:31:36;2.87;;;2.03;;
1328;SDS011;658;48.820;9.354;2022-10-16T14:35:38;2.50;;;2.30;;
1328;SDS011;658;48.820;9.354;2022-10-16T14:39:39;3.00;;;2.30;;
1328;SDS011;658;48.820;9.354;2022-10-16T14:43:41;4.70;;;2.90;;
1328;SDS011;658;48.820;9.354;2022-10-16T14:47:50;3.00;;;2.70;;
1328;SDS011;658;48.820;9.354;2022-10-16T14:51:53;4.13;;;2.87;;
1328;SDS011;658;48.820;9.354;2022-10-16T14:55:54;2.73;;;2.53;;
1328;SDS011;658;48.820;9.354;2022-10-16T14:59:55;2.50;;;2.30;;
1328;SDS011;658;48.820;9.354;2022-10-16T15:03:56;2.40;;;2.20;;
1328;SDS011;658;48.820;9.354;2022-10-16T15:07:57;2.77;;;2.57;;
1328;SDS011;658;48.820;9.354;2022-10-16T15:11:58;2.60;;;2.33;;
1328;SDS011;658;48.820;9.354;2022-10-16T15:15:59;2.30;;;2.20;;
1328;SDS011;658;48.820;9.354;2022-10-16T15:19:59;3.50;;;2.43;;
1328;SDS011;658;48.820;9.354;2022-10-16T15:24:00;2.10;;;1.93;;
1328;SDS011;658;48.820;9.354;2022-10-16T15:28:01;2.33;;;2.13;;
1328;SDS011;658;48.820;9.354;2022-10-16T15:32:03;2.10;;;1.90;;
1328;SDS011;658;48.820;9.354;2022-10-16T15:36:04;2.27;;;2.13;;
1328;SDS011;658;48.820;9.354;2022-10-16T15:40:06;2.40;;;2.20;;
1328;SDS011;658;48.820;9.354;2022-10-16T15:44:08;2.90;;;1.80;;
1328;SDS011;658;48.820;9.354;2022-10-16T15:48:12;2.50;;;2.10;;
1328;SDS011;658;48.820;9.354;2022-10-16T15:52:13;3.33;;;2.23;;
1328;SDS011;658;48.820;9.354;2022-10-16T15:56:14;2.27;;;2.07;;
1328;SDS011;658;48.820;9.354;2022-10-16T16:00:16;2.30;;;1.93;;
1328;SDS011;658;48.820;9.354;2022-10-16T16:04:20;2.10;;;1.90;;
1328;SDS011;658;48.820;9.354;2022-10-16T16:08:21;2.90;;;2.00;;
1328;SDS011;658;48.820;9.354;2022-10-16T16:12:22;2.20;;;1.77;;
1328;SDS011;658;48.820;9.354;2022-10-16T16:16:23;1.80;;;1.70;;
1328;SDS011;658;48.820;9.354;2022-10-16T16:20:23;1.70;;;1.60;;
1328;SDS011;658;48.820;9.354;2022-10-16T16:24:24;1.80;;;1.63;;
1328;SDS011;658;48.820;9.354;2022-10-16T16:28:25;2.70;;;1.80;;
1328;SDS011;658;48.820;9.354;2022-10-16T16:32:25;1.87;;;1.60;;
1328;SDS011;658;48.820;9.354;2022-10-16T16:36:26;1.80;;;1.70;;
1328;SDS011;658;48.820;9.354;2022-10-16T16:40:26;1.43;;;1.33;;
1328;SDS011;658;48.820;9.354;2022-10-16T16:44:27;1.63;;;1.53;;
1328;SDS011;658;48.820;9.354;2022-10-16T16:48:28;1.60;;;1.50;;
1328;SDS011;658;48.820;9.354;2022-10-16T16:52:28;1.77;;;1.67;;
1328;SDS011;658;48.820;9.354;2022-10-16T16:56:29;1.60;;;1.50;;
1328;SDS011;658;48.820;9.354;2022-10-16T17:00:30;2.00;;;1.90;;
1328;SDS011;658;48.820;9.354;2022-10-16T17:04:30;1.70;;;1.50;;
1328;SDS011;658;48.820;9.354;2022-10-16T17:08:32;1.40;;;1.30;;
1328;SDS011;658;48.820;9.354;2022-10-16T17:12:36;1.40;;;1.30;;
1328;SDS011;658;48.820;9.354;2022-10-16T17:16:38;1.60;;;1.50;;
1328;SDS011;658;48.820;9.354;2022-10-16T17:20:39;1.87;;;1.23;;
1328;SDS011;658;48.820;9.354;2022-10-16T17:24:40;2.00;;;1.40;;
1328;SDS011;658;48.820;9.354;2022-10-16T17:28:41;1.40;;;1.30;;
1328;SDS011;658;48.820;9.354;2022-10-16T17:32:42;2.00;;;1.80;;
1328;SDS011;658;48.820;9.354;2022-10-16T17:36:43;1.43;;;1.33;;
1328;SDS011;658;48.820;9.354;2022-10-16T17:40:45;1.33;;;1.27;;
1328;SDS011;658;48.820;9.354;2022-10-16T17:44:46;1.50;;;1.40;;
1328;SDS011;658;48.820;9.354;2022-10-16T17:48:47;1.37;;;1.27;;
1328;SDS011;658;48.820;9.354;2022-10-16T17:52:50;1.50;;;1.40;;
1328;SDS011;658;48.820;9.354;2022-10-16T17:56:50;1.93;;;1.67;;
1328;SDS011;658;48.820;9.354;2022-10-16T18:00:52;1.13;;;1.13;;
1328;SDS011;658;48.820;9.354;2022-10-16T18:04:53;1.40;;;1.27;;
1328;SDS011;658;48.820;9.354;2022-10-16T18:08:55;1.50;;;1.40;;
1328;SDS011;658;48.820;9.354;2022-10-16T18:12:57;1.50;;;1.30;;
1328;SDS011;658;48.820;9.354;2022-10-16T18:16:57;1.57;;;1.47;;
1328;SDS011;658;48.820;9.354;2022-10-16T18:20:59;1.40;;;1.30;;
1328;SDS011;658;48.820;9.354;2022-10-16T18:25:02;1.43;;;1.33;;
1328;SDS011;658;48.820;9.354;2022-10-16T18:29:06;1.30;;;1.20;;
1328;SDS011;658;48.820;9.354;2022-10-16T18:33:08;1.40;;;1.30;;
1328;SDS011;658;48.820;9.354;2022-10-16T18:37:09;1.37;;;1.27;;
1328;SDS011;658;48.820;9.354;2022-10-16T18:41:11;1.70;;;1.60;;
1328;SDS011;658;48.820;9.354;2022-10-16T18:45:12;1.40;;;1.30;;
1328;SDS011;658;48.820;9.354;2022-10-16T18:49:13;1.83;;;1.73;;
1328;SDS011;658;48.820;9.354;2022-10-16T18:53:13;1.77;;;1.47;;
1328;SDS011;658;48.820;9.354;2022-10-16T18:57:14;1.73;;;1.63;;
1328;SDS011;658;48.820;9.354;2022-10-16T19:01:16;1.50;;;1.40;;
1328;SDS011;658;48.820;9.354;2022-10-16T19:05:22;1.37;;;1.27;;
1328;SDS011;658;48.820;9.354;2022-10-16T19:09:23;1.10;;;1.10;;
1328;SDS011;658;48.820;9.354;2022-10-16T19:13:24;1.30;;;1.20;;
1328;SDS011;658;48.820;9.354;2022-10-16T19:17:25;1.53;;;1.43;;
1328;SDS011;658;48.820;9.354;2022-10-16T19:21:26;1.47;;;1.37;;
1328;SDS011;658;48.820;9.354;2022-10-16T19:25:28;1.30;;;1.20;;
1328;SDS011;658;48.820;9.354;2022-10-16T19:29:29;1.63;;;1.53;;
1328;SDS011;658;48.820;9.354;2022-10-16T19:33:30;1.40;;;1.30;;
1328;SDS011;658;48.820;9.354;2022-10-16T19:37:31;1.30;;;1.30;;
1328;SDS011;658;48.820;9.354;2022-10-16T19:41:32;1.17;;;1.10;;
1328;SDS011;658;48.820;9.354;2022-10-16T19:45:33;1.70;;;1.60;;
1328;SDS011;658;48.820;9.354;2022-10-16T19:49:33;1.33;;;1.23;;
1328;SDS011;658;48.820;9.354;2022-10-16T19:53:34;1.37;;;1.27;;
1328;SDS011;658;48.820;9.354;2022-10-16T19:57:35;1.50;;;1.40;;
1328;SDS011;658;48.820;9.354;2022-10-16T20:01:36;1.47;;;1.30;;
1328;SDS011;658;48.820;9.354;2022-10-16T20:05:37;3.20;;;1.17;;
1328;SDS011;658;48.820;9.354;2022-10-16T20:09:38;1.57;;;1.47;;
1328;SDS011;658;48.820;9.354;2022-10-16T20:13:39;3.47;;;1.40;;
1328;SDS011;658;48.820;9.354;2022-10-16T20:17:40;1.90;;;1.30;;
1328;SDS011;658;48.820;9.354;2022-10-16T20:21:41;2.30;;;1.20;;
1328;SDS011;658;48.820;9.354;2022-10-16T20:25:42;2.10;;;1.50;;
1328;SDS011;658;48.820;9.354;2022-10-16T20:29:43;1.63;;;1.50;;
1328;SDS011;658;48.820;9.354;2022-10-16T20:33:44;1.70;;;1.43;;
1328;SDS011;658;48.820;9.354;2022-10-16T20:37:44;1.83;;;1.47;;
1328;SDS011;658;48.820;9.354;2022-10-16T20:41:47;1.93;;;1.57;;
1328;SDS011;658;48.820;9.354;2022-10-16T20:45:57;1.40;;;1.30;;
1328;SDS011;658;48.820;9.354;2022-10-16T20:49:59;4.20;;;1.50;;
1328;SDS011;658;48.820;9.354;2022-10-16T20:54:00;1.60;;;1.50;;
1328;SDS011;658;48.820;9.354;2022-10-16T20:58:03;2.17;;;1.83;;
1328;SDS011;658;48.820;9.354;2022-10-16T21:02:04;2.43;;;1.77;;
1328;SDS011;658;48.820;9.354;2022-10-16T21:06:07;3.43;;;1.87;;
1328;SDS011;658;48.820;9.354;2022-10-16T21:10:09;3.87;;;1.87;;
1328;SDS011;658;48.820;9.354;2022-10-16T21:14:10;1.83;;;1.50;;
1328;SDS011;658;48.820;9.354;2022-10-16T21:18:11;5.23;;;2.10;;
1328;SDS011;658;48.820;9.354;2022-10-16T21:22:12;4.27;;;2.10;;
1328;SDS011;658;48.820;9.354;2022-10-16T21:26:12;4.70;;;2.70;;
1328;SDS011;658;48.820;9.354;2022-10-16T21:30:13;2.30;;;1.90;;
1328;SDS011;658;48.820;9.354;2022-10-16T21:34:14;3.67;;;2.60;;
1328;SDS011;658;48.820;9.354;2022-10-16T21:38:14;3.50;;;2.80;;
1328;SDS011;658;48.820;9.354;2022-10-16T21:42:15;5.53;;;3.23;;
1328;SDS011;658;48.820;9.354;2022-10-16T21:46:16;3.90;;;3.30;;
1328;SDS011;658;48.820;9.354;2022-10-16T21:50:18;4.33;;;3.30;;
1328;SDS011;658;48.820;9.354;2022-10-16T21:54:20;4.43;;;4.00;;
1328;SDS011;658;48.820;9.354;2022-10-16T21:58:22;4.23;;;3.70;;
1328;SDS011;658;48.820;9.354;2022-10-16T22:02:23;5.10;;;4.60;;
1328;SDS011;658;48.820;9.354;2022-10-16T22:06:24;6.03;;;4.13;;
1328;SDS011;658;48.820;9.354;2022-10-16T22:10:26;6.30;;;5.20;;
1328;SDS011;658;48.820;9.354;2022-10-16T22:14:27;5.30;;;4.20;;
1328;SDS011;658;48.820;9.354;2022-10-16T22:18:28;5.60;;;5.00;;
1328;SDS011;658;48.820;9.354;2022-10-16T22:22:29;5.57;;;4.90;;
1328;SDS011;658;48.820;9.354;2022-10-16T22:26:30;6.50;;;5.63;;
1328;SDS011;658;48.820;9.354;2022-10-16T22:30:34;4.97;;;4.57;;
1328;SDS011;658;48.820;9.354;2022-10-16T22:34:36;7.57;;;5.03;;
1328;SDS011;658;48.820;9.354;2022-10-16T22:38:36;8.73;;;5.83;;
1328;SDS011;658;48.820;9.354;2022-10-16T22:42:37;6.67;;;6.07;;
1328;SDS011;658;48.820;9.354;2022-10-16T22:46:38;6.90;;;5.57;;
1328;SDS011;658;48.820;9.354;2022-10-16T22:50:39;8.03;;;5.77;;
1328;SDS011;658;48.820;9.354;2022-10-16T22:54:39;7.10;;;6.37;;
1328;SDS011;658;48.820;9.354;2022-10-16T22:58:40;6.53;;;5.87;;
1328;SDS011;658;48.820;9.354;2022-10-16T23:02:41;6.87;;;5.40;;
1328;SDS011;658;48.820;9.354;2022-10-16T23:06:41;7.13;;;6.20;;
1328;SDS011;658;48.820;9.354;2022-10-16T23:10:43;7.00;;;6.30;;
1328;SDS011;658;48.820;9.354;2022-10-16T23:14:46;6.63;;;5.87;;
1328;SDS011;658;48.820;9.354;2022-10-16T23:18:47;7.33;;;6.07;;
1328;SDS011;658;48.820;9.354;2022-10-16T23:22:48;6.50;;;5.57;;
1328;SDS011;658;48.820;9.354;2022-10-16T23:26:49;7.27;;;6.17;;
1328;SDS011;658;48.820;9.354;2022-10-16T23:30:49;7.17;;;5.87;;
1328;SDS011;658;48.820;9.354;2022-10-16T23:34:50;7.57;;;6.23;;
1328;SDS011;658;48.820;9.354;2022-10-16T23:38:51;6.93;;;6.07;;
1328;SDS011;658;48.820;9.354;2022-10-16T23:42:52;7.57;;;6.87;;
1328;SDS011;658;48.820;9.354;2022-10-16T23:46:53;7.53;;;6.53;;
1328;SDS011;658;48.820;9.354;2022-10-16T23:50:53;8.93;;;6.43;;
1328;SDS011;658;48.820;9.354;2022-10-16T23:54:54;7.67;;;6.53;;
1328;SDS011;658;48.820;9.354;2022-10-16T23:58:55;6.63;;;5.80;;
